createdAt,value
2023-06-28T00:01:53.713Z,101152.47
2023-06-28T00:04:20.524Z,101146.38
2023-06-28T00:06:47.281Z,101158.66
2023-06-28T00:09:13.854Z,101159.56
2023-06-28T00:11:40.477Z,101159.56
2023-06-28T00:14:07.081Z,101157.81
2023-06-28T00:16:33.652Z,101156.06
2023-06-28T00:19:01.594Z,101155.22
2023-06-28T00:21:28.964Z,101154.34
2023-06-28T00:23:55.979Z,101153.50
2023-06-28T00:26:22.798Z,101154.38
2023-06-28T00:28:49.463Z,101157.84
2023-06-28T00:31:16.246Z,101162.25
2023-06-28T00:33:42.921Z,101162.22
2023-06-28T00:36:09.531Z,101162.25
2023-06-28T00:38:37.240Z,101166.63
2023-06-28T00:41:04.829Z,101166.63
2023-06-28T00:43:33.155Z,101166.63
2023-06-28T00:45:59.732Z,101166.63
2023-06-28T00:48:27.152Z,101157.88
2023-06-28T00:50:55.002Z,101168.34
2023-06-28T00:53:22.317Z,101164.00
2023-06-28T00:55:49.170Z,101165.72
2023-06-28T00:58:15.998Z,101162.22
2023-06-28T01:00:46.043Z,101170.09
2023-06-28T01:03:12.857Z,101172.69
2023-06-28T01:05:39.596Z,101168.31
2023-06-28T01:08:07.188Z,101168.34
2023-06-28T01:10:38.049Z,101171.84
2023-06-28T01:13:07.496Z,101159.63
2023-06-28T01:15:34.216Z,101171.84
2023-06-28T01:18:02.649Z,101174.44
2023-06-28T01:20:32.147Z,101169.16
2023-06-28T01:22:59.500Z,101176.16
2023-06-28T01:25:26.169Z,101176.16
2023-06-28T01:27:55.693Z,101170.03
2023-06-28T01:30:24.797Z,101172.69
2023-06-28T01:32:52.176Z,101173.53
2023-06-28T01:35:18.891Z,101175.22
2023-06-28T01:37:46.033Z,101185.72
2023-06-28T01:40:14.397Z,101186.50
2023-06-28T01:42:41.829Z,101188.22
2023-06-28T01:45:08.992Z,101183.00
2023-06-28T01:47:35.961Z,101188.25
2023-06-28T01:50:02.900Z,101185.69
2023-06-28T01:52:30.139Z,101183.03
2023-06-28T01:54:58.039Z,101178.66
2023-06-28T01:57:24.710Z,101181.28
2023-06-28T01:59:51.766Z,101184.75
2023-06-28T02:02:21.577Z,101181.25
2023-06-28T02:04:49.214Z,101185.63
2023-06-28T02:07:15.836Z,101178.66
2023-06-28T02:09:45.323Z,101175.19
2023-06-28T02:12:11.941Z,101179.50
2023-06-28T02:14:40.324Z,101177.78
2023-06-28T02:17:14.748Z,101182.16
2023-06-28T02:19:42.255Z,101178.63
2023-06-28T02:22:09.488Z,101174.22
2023-06-28T02:24:36.148Z,101171.53
2023-06-28T02:27:02.756Z,101173.28
2023-06-28T02:29:29.851Z,101170.69
2023-06-28T02:31:58.631Z,101173.34
2023-06-28T02:34:25.882Z,101169.88
2023-06-28T02:36:54.453Z,101177.72
2023-06-28T02:39:21.221Z,101181.22
2023-06-28T02:41:47.864Z,101177.72
2023-06-28T02:44:15.859Z,101180.22
2023-06-28T02:46:43.419Z,101180.19
2023-06-28T02:49:10.395Z,101178.44
2023-06-28T02:51:37.046Z,101175.84
2023-06-28T02:54:05.749Z,101171.47
2023-06-28T02:56:34.960Z,101176.78
2023-06-28T02:59:21.848Z,101161.00
2023-06-28T03:01:51.199Z,101174.06
2023-06-28T03:04:17.808Z,101170.56
2023-06-28T03:06:50.260Z,101179.31
2023-06-28T03:09:17.538Z,101181.06
2023-06-28T03:11:44.131Z,101175.78
2023-06-28T03:14:11.727Z,101179.25
2023-06-28T03:16:38.563Z,101171.34
2023-06-28T03:19:09.228Z,101175.69
2023-06-28T03:21:35.918Z,101180.06
2023-06-28T03:24:03.470Z,101183.56
2023-06-28T03:26:30.608Z,101178.34
2023-06-28T03:28:59.419Z,101177.47
2023-06-28T03:31:27.854Z,101173.13
2023-06-28T03:33:55.009Z,101179.22
2023-06-28T03:36:21.677Z,101176.63
2023-06-28T03:38:48.310Z,101179.25
2023-06-28T03:41:15.627Z,101172.28
2023-06-28T03:43:42.741Z,101170.53
2023-06-28T03:46:09.450Z,101175.78
2023-06-28T03:48:36.091Z,101169.66
2023-06-28T03:51:03.606Z,101175.81
2023-06-28T03:53:30.242Z,101161.00
2023-06-28T03:55:59.299Z,101169.72
2023-06-28T03:58:25.973Z,101165.31
2023-06-28T04:00:53.971Z,101166.22
2023-06-28T04:03:20.788Z,101162.72
2023-06-28T04:05:47.440Z,101168.00
2023-06-28T04:08:14.085Z,101163.63
2023-06-28T04:10:40.903Z,101161.88
2023-06-28T04:13:07.687Z,101164.50
2023-06-28T04:15:34.282Z,101167.19
2023-06-28T04:18:00.956Z,101173.28
2023-06-28T04:20:27.654Z,101176.78
2023-06-28T04:22:54.336Z,101172.44
2023-06-28T04:25:20.898Z,101164.63
2023-06-28T04:27:47.462Z,101173.38
2023-06-28T04:30:14.901Z,101171.66
2023-06-28T04:32:43.978Z,101173.44
2023-06-28T04:35:11.995Z,101171.69
2023-06-28T04:37:39.699Z,101173.47
2023-06-28T04:40:07.062Z,101179.56
2023-06-28T04:42:33.592Z,101176.16
2023-06-28T04:45:00.701Z,101177.91
2023-06-28T04:47:28.783Z,101183.19
2023-06-28T04:49:56.000Z,101177.97
2023-06-28T04:52:24.228Z,101173.59
2023-06-28T04:54:51.242Z,101172.72
2023-06-28T04:57:18.537Z,101177.97
2023-06-28T04:59:45.185Z,101181.47
2023-06-28T05:02:11.819Z,101181.44
2023-06-28T05:04:38.935Z,101182.31
2023-06-28T05:07:07.027Z,101182.28
2023-06-28T05:09:34.778Z,101191.03
2023-06-28T05:12:02.971Z,101193.69
2023-06-28T05:14:30.915Z,101179.72
2023-06-28T05:16:58.177Z,101184.09
2023-06-28T05:19:25.744Z,101186.72
2023-06-28T05:21:52.572Z,101176.22
2023-06-28T05:24:20.037Z,101178.84
2023-06-28T05:26:47.240Z,101179.75
2023-06-28T05:29:14.391Z,101173.59
2023-06-28T05:31:43.199Z,101174.50
2023-06-28T05:34:09.898Z,101171.00
2023-06-28T05:36:36.546Z,101170.13
2023-06-28T05:39:03.710Z,101163.09
2023-06-28T05:41:30.297Z,101171.00
2023-06-28T05:43:56.908Z,101168.38
2023-06-28T05:46:23.491Z,101171.88
2023-06-28T05:48:51.505Z,101165.75
2023-06-28T05:51:18.152Z,101157.88
2023-06-28T05:53:44.793Z,101168.38
2023-06-28T05:56:11.590Z,101169.25
2023-06-28T05:58:38.192Z,101166.59
2023-06-28T06:01:04.749Z,101170.97
2023-06-28T06:03:31.801Z,101167.34
2023-06-28T06:05:59.013Z,101169.09
2023-06-28T06:08:25.563Z,101181.38
2023-06-28T06:10:52.205Z,101169.97
2023-06-28T06:13:18.792Z,101174.31
2023-06-28T06:15:45.513Z,101187.53
2023-06-28T06:18:12.155Z,101180.44
2023-06-28T06:20:38.718Z,101173.38
2023-06-28T06:23:05.277Z,101170.66
2023-06-28T06:25:32.108Z,101167.94
2023-06-28T06:27:58.750Z,101157.44
2023-06-28T06:30:25.598Z,101160.09
2023-06-28T06:32:52.519Z,101158.28
2023-06-28T06:35:19.148Z,101152.06
2023-06-28T06:37:47.171Z,101151.94
2023-06-28T06:40:14.370Z,101155.41
2023-06-28T06:42:41.048Z,101156.22
2023-06-28T06:45:08.211Z,101152.03
2023-06-28T06:47:39.174Z,101157.25
2023-06-28T06:50:06.691Z,101170.19
2023-06-28T06:52:33.420Z,101171.94
2023-06-28T06:54:59.982Z,101180.00
2023-06-28T06:57:26.730Z,101171.91
2023-06-28T06:59:53.305Z,101167.28
2023-06-28T07:02:20.958Z,101175.91
2023-06-28T07:04:47.822Z,101162.47
2023-06-28T07:07:14.592Z,101163.19
2023-06-28T07:09:41.203Z,101170.19
2023-06-28T07:12:08.529Z,101170.03
2023-06-28T07:14:35.147Z,101176.28
2023-06-28T07:17:01.754Z,101171.56
2023-06-28T07:19:28.342Z,101174.22
2023-06-28T07:21:54.891Z,101171.56
2023-06-28T07:24:21.463Z,101167.91
2023-06-28T07:26:48.023Z,101163.00
2023-06-28T07:29:14.652Z,101164.59
2023-06-28T07:31:41.582Z,101179.69
2023-06-28T07:34:09.975Z,101180.56
2023-06-28T07:36:36.591Z,101175.19
2023-06-28T07:39:03.294Z,101183.06
2023-06-28T07:41:29.996Z,101176.88
2023-06-28T07:43:56.566Z,101180.56
2023-06-28T07:46:23.208Z,101183.00
2023-06-28T07:48:52.078Z,101187.22
2023-06-28T07:51:18.811Z,101192.25
2023-06-28T07:53:47.205Z,101188.88
2023-06-28T07:56:14.651Z,101188.50
2023-06-28T07:58:41.276Z,101188.72
2023-06-28T08:01:07.994Z,101189.84
2023-06-28T08:03:34.620Z,101177.38
2023-06-28T08:06:01.260Z,101187.19
2023-06-28T08:08:27.885Z,101172.91
2023-06-28T08:10:54.527Z,101179.72
2023-06-28T08:13:21.885Z,101181.09
2023-06-28T08:15:48.465Z,101190.06
2023-06-28T08:18:17.289Z,101178.66
2023-06-28T08:20:48.491Z,101175.56
2023-06-28T08:23:18.203Z,101175.03
2023-06-28T08:25:44.972Z,101179.97
2023-06-28T08:28:11.752Z,101175.41
2023-06-28T08:30:39.723Z,101181.97
2023-06-28T08:33:06.627Z,101184.06
2023-06-28T08:35:33.357Z,101186.09
2023-06-28T08:37:59.961Z,101182.69
2023-06-28T08:40:30.439Z,101184.06
2023-06-28T08:43:04.210Z,101175.91
2023-06-28T08:45:35.897Z,101175.66
2023-06-28T08:48:13.023Z,101172.78
2023-06-28T08:50:51.726Z,101171.38
2023-06-28T08:53:21.213Z,101169.38
2023-06-28T08:55:48.949Z,101170.78
2023-06-28T08:58:16.524Z,101156.34
2023-06-28T09:00:45.594Z,101165.63
2023-06-28T09:03:15.167Z,101160.72
2023-06-28T09:05:43.922Z,101166.44
2023-06-28T09:08:10.930Z,101153.66
2023-06-28T09:10:40.012Z,101150.84
2023-06-28T09:13:07.615Z,101164.25
2023-06-28T09:15:36.492Z,101157.00
2023-06-28T09:18:03.358Z,101154.69
2023-06-28T09:20:30.051Z,101160.56
2023-06-28T09:23:01.114Z,101149.38
2023-06-28T09:25:30.571Z,101142.69
2023-06-28T09:27:57.801Z,101144.88
2023-06-28T09:30:42.805Z,101150.94
2023-06-28T09:33:10.027Z,101152.31
2023-06-28T09:35:40.244Z,101165.00
2023-06-28T09:38:10.096Z,101180.22
2023-06-28T09:40:37.038Z,101184.56
2023-06-28T09:43:04.475Z,101176.91
2023-06-28T09:45:38.011Z,101171.38
2023-06-28T09:48:05.996Z,101161.09
2023-06-28T09:50:44.103Z,101159.56
2023-06-28T09:53:18.561Z,101169.06
2023-06-28T09:55:46.762Z,101164.06
2023-06-28T09:58:16.041Z,101167.97
2023-06-28T10:00:44.320Z,101168.38
2023-06-28T10:03:13.047Z,101163.66
2023-06-28T10:05:41.998Z,101165.50
2023-06-28T10:08:16.537Z,101167.00
2023-06-28T10:10:44.839Z,101156.84
2023-06-28T10:13:14.895Z,101160.78
2023-06-28T10:16:04.540Z,101152.78
2023-06-28T10:18:31.537Z,101148.03
2023-06-28T10:21:00.471Z,101152.22
2023-06-28T10:23:27.551Z,101150.63
2023-06-28T10:25:55.951Z,101155.94
2023-06-28T10:28:22.571Z,101149.66
2023-06-28T10:30:49.399Z,101146.25
2023-06-28T10:33:16.717Z,101145.56
2023-06-28T10:35:46.428Z,101140.28
2023-06-28T10:38:13.683Z,101147.47
2023-06-28T10:40:40.596Z,101159.44
2023-06-28T10:43:07.331Z,101152.91
2023-06-28T10:45:35.436Z,101155.97
2023-06-28T10:48:04.358Z,101155.53
2023-06-28T10:50:42.817Z,101149.34
2023-06-28T10:53:23.675Z,101146.88
2023-06-28T10:56:22.872Z,101143.97
2023-06-28T10:58:55.150Z,101135.72
2023-06-28T11:01:37.552Z,101135.44
2023-06-28T11:04:13.562Z,101140.97
2023-06-28T11:06:41.199Z,101139.22
2023-06-28T11:09:17.026Z,101135.91
2023-06-28T11:11:55.583Z,101139.16
2023-06-28T11:14:23.962Z,101142.94
2023-06-28T11:16:51.225Z,101146.13
2023-06-28T11:19:20.557Z,101142.53
2023-06-28T11:21:58.456Z,101133.69
2023-06-28T11:24:36.091Z,101134.97
2023-06-28T11:27:10.002Z,101136.34
2023-06-28T11:29:57.834Z,101128.94
2023-06-28T11:32:29.573Z,101125.41
2023-06-28T11:34:59.396Z,101124.66
2023-06-28T11:37:26.684Z,101128.09
2023-06-28T11:39:53.748Z,101127.97
2023-06-28T11:42:21.181Z,101125.38
2023-06-28T11:44:50.176Z,101137.31
2023-06-28T11:47:21.946Z,101137.78
2023-06-28T11:49:50.576Z,101130.28
2023-06-28T11:52:18.451Z,101125.19
2023-06-28T11:54:45.172Z,101133.31
2023-06-28T11:57:12.061Z,101131.34
2023-06-28T11:59:45.457Z,101136.69
2023-06-28T12:02:12.597Z,101136.16
2023-06-28T12:04:39.924Z,101133.66
2023-06-28T12:07:07.471Z,101132.78
2023-06-28T12:09:36.938Z,101128.94
2023-06-28T12:12:05.950Z,101128.28
2023-06-28T12:14:40.889Z,101129.00
2023-06-28T12:17:07.804Z,101124.38
2023-06-28T12:19:36.438Z,101123.72
2023-06-28T12:22:07.667Z,101118.94
2023-06-28T12:24:36.127Z,101116.00
2023-06-28T12:27:09.936Z,101119.28
2023-06-28T12:29:38.022Z,101114.16
2023-06-28T12:32:06.984Z,101121.63
2023-06-28T12:34:39.355Z,101121.16
2023-06-28T12:37:08.564Z,101125.44
2023-06-28T12:39:36.182Z,101111.91
2023-06-28T12:42:02.845Z,101121.50
2023-06-28T12:44:31.461Z,101127.75
2023-06-28T12:46:58.039Z,101115.91
2023-06-28T12:49:37.760Z,101117.97
2023-06-28T12:52:05.004Z,101119.94
2023-06-28T12:54:31.779Z,101121.47
2023-06-28T12:57:01.008Z,101113.78
2023-06-28T12:59:28.666Z,101116.03
2023-06-28T13:01:55.493Z,101120.13
2023-06-28T13:04:22.473Z,101118.50
2023-06-28T13:06:49.442Z,101116.03
2023-06-28T13:09:16.022Z,101121.94
2023-06-28T13:11:42.663Z,101111.56
2023-06-28T13:14:09.272Z,101110.84
2023-06-28T13:16:36.325Z,101124.38
2023-06-28T13:19:02.884Z,101119.91
2023-06-28T13:21:29.576Z,101117.72
2023-06-28T13:23:56.319Z,101125.00
2023-06-28T13:26:22.884Z,101117.31
2023-06-28T13:28:49.661Z,101119.53
2023-06-28T13:31:16.480Z,101118.38
2023-06-28T13:33:43.139Z,101112.00
2023-06-28T13:36:11.135Z,101112.50
2023-06-28T13:38:38.580Z,101111.81
2023-06-28T13:41:05.980Z,101115.16
2023-06-28T13:43:32.668Z,101124.34
2023-06-28T13:45:59.386Z,101117.56
2023-06-28T13:48:26.047Z,101117.13
2023-06-28T13:50:52.672Z,101110.50
2023-06-28T13:53:19.508Z,101111.09
2023-06-28T13:55:46.274Z,101116.31
2023-06-28T13:58:12.993Z,101118.00
2023-06-28T14:00:39.645Z,101109.28
2023-06-28T14:03:06.418Z,101117.94
2023-06-28T14:05:33.394Z,101117.00
2023-06-28T14:08:00.119Z,101120.06
2023-06-28T14:10:28.120Z,101116.25
2023-06-28T14:12:54.754Z,101116.53
2023-06-28T14:15:22.536Z,101112.94
2023-06-28T14:17:49.172Z,101111.31
2023-06-28T14:20:16.349Z,101111.47
2023-06-28T14:22:48.578Z,101104.00
2023-06-28T14:25:15.486Z,101108.22
2023-06-28T14:27:42.156Z,101108.44
2023-06-28T14:30:09.307Z,101111.75
2023-06-28T14:32:36.109Z,101106.06
2023-06-28T14:35:02.756Z,101107.78
2023-06-28T14:37:29.388Z,101100.84
2023-06-28T14:39:55.965Z,101103.56
2023-06-28T14:42:22.541Z,101100.38
2023-06-28T14:44:49.162Z,101098.47
2023-06-28T14:47:16.655Z,101097.59
2023-06-28T14:49:43.433Z,101098.09
2023-06-28T14:52:10.540Z,101097.06
2023-06-28T14:54:37.209Z,101092.19
2023-06-28T14:57:05.338Z,101101.22
2023-06-28T14:59:32.033Z,101101.63
2023-06-28T15:02:01.657Z,101095.59
2023-06-28T15:04:28.933Z,101091.72
2023-06-28T15:06:56.012Z,101097.75
2023-06-28T15:09:22.792Z,101095.47
2023-06-28T15:11:49.387Z,101095.06
2023-06-28T15:14:16.081Z,101088.78
2023-06-28T15:16:48.919Z,101093.69
2023-06-28T15:19:15.737Z,101091.88
2023-06-28T15:21:42.418Z,101083.44
2023-06-28T15:24:09.260Z,101083.03
2023-06-28T15:26:37.286Z,101080.66
2023-06-28T15:29:04.061Z,101081.75
2023-06-28T15:31:31.955Z,101084.91
2023-06-28T15:34:01.788Z,101081.44
2023-06-28T15:36:28.435Z,101079.06
2023-06-28T15:38:55.244Z,101076.53
2023-06-28T15:41:21.884Z,101071.56
2023-06-28T15:43:48.620Z,101069.75
2023-06-28T15:46:15.323Z,101073.66
2023-06-28T15:48:42.085Z,101075.66
2023-06-28T15:51:08.681Z,101072.31
2023-06-28T15:53:35.354Z,101071.47
2023-06-28T15:56:02.144Z,101078.63
2023-06-28T15:58:28.739Z,101079.34
2023-06-28T16:00:57.654Z,101085.28
2023-06-28T16:03:24.489Z,101084.22
2023-06-28T16:05:51.247Z,101081.19
2023-06-28T16:08:18.204Z,101083.56
2023-06-28T16:10:44.970Z,101079.00
2023-06-28T16:13:14.802Z,101085.44
2023-06-28T16:15:44.460Z,101074.88
2023-06-28T16:18:11.176Z,101071.84
2023-06-28T16:20:37.809Z,101079.69
2023-06-28T16:23:04.489Z,101072.34
2023-06-28T16:25:31.177Z,101073.91
2023-06-28T16:27:59.067Z,101064.22
2023-06-28T16:30:28.957Z,101073.66
2023-06-28T16:32:57.401Z,101072.41
2023-06-28T16:35:23.998Z,101070.38
2023-06-28T16:37:51.139Z,101069.53
2023-06-28T16:40:17.866Z,101077.97
2023-06-28T16:42:44.610Z,101065.91
2023-06-28T16:45:11.465Z,101068.53
2023-06-28T16:47:38.231Z,101062.50
2023-06-28T16:50:05.545Z,101060.97
2023-06-28T16:52:32.156Z,101059.25
2023-06-28T16:55:00.244Z,101060.28
2023-06-28T16:57:26.960Z,101060.25
2023-06-28T16:59:53.951Z,101058.53
2023-06-28T17:02:20.627Z,101053.69
2023-06-28T17:04:47.340Z,101058.78
2023-06-28T17:07:14.083Z,101062.59
2023-06-28T17:09:41.140Z,101061.16
2023-06-28T17:12:08.135Z,101058.88
2023-06-28T17:14:34.829Z,101055.50
2023-06-28T17:17:01.425Z,101058.88
2023-06-28T17:19:28.030Z,101060.78
2023-06-28T17:21:54.641Z,101063.38
2023-06-28T17:24:21.593Z,101066.59
2023-06-28T17:26:55.174Z,101065.97
2023-06-28T17:29:21.760Z,101071.91
2023-06-28T17:31:48.421Z,101063.84
2023-06-28T17:34:16.419Z,101065.19
2023-06-28T17:36:47.612Z,101064.75
2023-06-28T17:39:15.767Z,101069.66
2023-06-28T17:41:42.466Z,101070.13
2023-06-28T17:44:09.367Z,101064.91
2023-06-28T17:46:36.913Z,101066.22
2023-06-28T17:49:03.732Z,101062.69
2023-06-28T17:51:30.445Z,101064.41
2023-06-28T17:53:57.062Z,101062.56
2023-06-28T17:56:23.659Z,101064.91
2023-06-28T17:58:50.225Z,101066.09
2023-06-28T18:01:17.002Z,101056.94
2023-06-28T18:03:43.692Z,101064.59
2023-06-28T18:06:10.357Z,101068.38
2023-06-28T18:08:37.042Z,101063.97
2023-06-28T18:11:03.713Z,101061.47
2023-06-28T18:13:33.373Z,101060.47
2023-06-28T18:16:00.313Z,101067.75
2023-06-28T18:18:26.976Z,101061.34
2023-06-28T18:20:53.599Z,101064.66
2023-06-28T18:23:20.203Z,101059.06
2023-06-28T18:25:46.850Z,101058.75
2023-06-28T18:28:13.451Z,101061.66
2023-06-28T18:30:40.150Z,101062.28
2023-06-28T18:33:07.155Z,101059.50
2023-06-28T18:35:34.708Z,101059.53
2023-06-28T18:38:02.182Z,101062.41
2023-06-28T18:40:28.752Z,101055.19
2023-06-28T18:42:55.507Z,101061.41
2023-06-28T18:45:22.157Z,101068.84
2023-06-28T18:47:48.871Z,101064.81
2023-06-28T18:50:15.761Z,101060.47
2023-06-28T18:52:42.476Z,101054.97
2023-06-28T18:55:12.770Z,101057.84
2023-06-28T18:57:39.435Z,101064.50
2023-06-28T19:00:06.674Z,101061.19
2023-06-28T19:02:34.177Z,101062.69
2023-06-28T19:05:00.846Z,101060.13
2023-06-28T19:07:27.502Z,101060.97
2023-06-28T19:09:54.164Z,101059.97
2023-06-28T19:12:20.766Z,101063.41
2023-06-28T19:14:47.508Z,101060.00
2023-06-28T19:17:14.104Z,101063.38
2023-06-28T19:19:40.659Z,101064.66
2023-06-28T19:22:08.469Z,101056.53
2023-06-28T19:24:35.060Z,101056.72
2023-06-28T19:27:01.782Z,101061.16
2023-06-28T19:29:28.476Z,101062.75
2023-06-28T19:31:55.082Z,101057.56
2023-06-28T19:34:21.769Z,101060.03
2023-06-28T19:36:48.363Z,101055.09
2023-06-28T19:39:15.080Z,101058.50
2023-06-28T19:41:41.738Z,101067.44
2023-06-28T19:44:08.388Z,101061.22
2023-06-28T19:46:34.964Z,101057.59
2023-06-28T19:49:01.829Z,101063.91
2023-06-28T19:51:28.484Z,101066.53
2023-06-28T19:53:55.218Z,101073.56
2023-06-28T19:56:22.211Z,101072.13
2023-06-28T19:58:49.040Z,101074.09
2023-06-28T20:01:15.929Z,101062.47
2023-06-28T20:03:42.813Z,101065.25
2023-06-28T20:06:10.150Z,101073.16
2023-06-28T20:08:36.909Z,101072.00
2023-06-28T20:11:03.740Z,101064.78
2023-06-28T20:13:32.332Z,101064.72
2023-06-28T20:15:59.527Z,101061.19
2023-06-28T20:18:26.456Z,101072.88
2023-06-28T20:20:53.855Z,101072.38
2023-06-28T20:23:20.853Z,101065.41
2023-06-28T20:25:48.448Z,101070.06
2023-06-28T20:28:15.430Z,101067.28
2023-06-28T20:30:42.112Z,101067.13
2023-06-28T20:33:10.310Z,101073.44
2023-06-28T20:35:37.477Z,101069.78
2023-06-28T20:38:04.495Z,101066.31
2023-06-28T20:40:31.287Z,101063.44
2023-06-28T20:43:00.005Z,101065.09
2023-06-28T20:45:26.830Z,101064.16
2023-06-28T20:47:53.587Z,101061.53
2023-06-28T20:50:20.259Z,101064.25
2023-06-28T20:52:47.055Z,101059.97
2023-06-28T20:55:13.679Z,101067.88
2023-06-28T20:57:40.611Z,101076.00
2023-06-28T21:00:13.701Z,101073.34
2023-06-28T21:02:40.723Z,101066.25
2023-06-28T21:05:09.387Z,101073.50
2023-06-28T21:07:36.668Z,101074.50
2023-06-28T21:10:03.946Z,101069.03
2023-06-28T21:12:32.870Z,101073.56
2023-06-28T21:14:59.805Z,101076.28
2023-06-28T21:17:26.787Z,101070.09
2023-06-28T21:19:53.612Z,101064.78
2023-06-28T21:22:22.111Z,101063.75
2023-06-28T21:24:49.624Z,101066.22
2023-06-28T21:27:16.779Z,101066.16
2023-06-28T21:29:43.653Z,101066.47
2023-06-28T21:32:10.568Z,101068.31
2023-06-28T21:34:45.002Z,101057.06
2023-06-28T21:37:13.137Z,101057.06
2023-06-28T21:39:40.920Z,101054.47
2023-06-28T21:42:08.732Z,101062.50
2023-06-28T21:44:35.464Z,101063.34
2023-06-28T21:47:02.088Z,101057.06
2023-06-28T21:49:28.806Z,101058.00
2023-06-28T21:51:57.303Z,101058.00
2023-06-28T21:54:24.062Z,101053.03
2023-06-28T21:56:50.794Z,101053.97
2023-06-28T21:59:17.394Z,101050.44
2023-06-28T22:01:44.454Z,101048.81
2023-06-28T22:04:11.296Z,101052.19
2023-06-28T22:06:40.231Z,101047.91
2023-06-28T22:09:09.513Z,101052.41
2023-06-28T22:11:36.122Z,101054.22
2023-06-28T22:14:05.667Z,101052.34
2023-06-28T22:16:34.918Z,101053.25
2023-06-28T22:19:02.050Z,101052.44
2023-06-28T22:21:28.786Z,101057.69
2023-06-28T22:23:56.154Z,101053.44
2023-06-28T22:26:23.867Z,101049.00
2023-06-28T22:28:50.466Z,101056.34
2023-06-28T22:31:17.252Z,101060.78
2023-06-28T22:33:44.002Z,101052.59
2023-06-28T22:36:10.962Z,101056.25
2023-06-28T22:38:48.090Z,101054.59
2023-06-28T22:41:18.055Z,101054.38
2023-06-28T22:43:44.795Z,101037.50
2023-06-28T22:46:11.608Z,101043.88
2023-06-28T22:48:38.244Z,101045.66
2023-06-28T22:51:06.764Z,101044.63
2023-06-28T22:53:34.455Z,101040.88
2023-06-28T22:56:01.353Z,101036.50
2023-06-28T22:58:27.974Z,101036.59
2023-06-28T23:00:56.064Z,101036.56
2023-06-28T23:03:25.222Z,101034.47
2023-06-28T23:05:53.607Z,101031.78
2023-06-28T23:08:23.338Z,101025.72
2023-06-28T23:10:51.045Z,101024.53
2023-06-28T23:13:20.477Z,101029.97
2023-06-28T23:15:48.900Z,101022.16
2023-06-28T23:18:21.420Z,101022.94
2023-06-28T23:20:52.007Z,101023.56
2023-06-28T23:23:19.990Z,101018.28
2023-06-28T23:25:53.740Z,101026.22
2023-06-28T23:28:21.800Z,101022.09
2023-06-28T23:30:49.924Z,101023.03
2023-06-28T23:33:16.987Z,101023.22
2023-06-28T23:35:46.826Z,101016.97
2023-06-28T23:38:14.184Z,101005.47
2023-06-28T23:40:42.017Z,100997.47
2023-06-28T23:43:09.018Z,101002.66
2023-06-28T23:45:42.611Z,101008.44
2023-06-28T23:48:09.866Z,101009.16
2023-06-28T23:50:36.616Z,101005.63
2023-06-28T23:53:03.407Z,100999.53
2023-06-28T23:55:30.805Z,101009.47
2023-06-28T23:57:57.985Z,101004.97
